createdAt,value
2018-06-11T05:02:54.351Z,94782.59
2018-06-11T05:07:57.631Z,94775.46
2018-06-11T05:13:00.902Z,94777.19
2018-06-11T05:18:04.202Z,94771.89
2018-06-11T05:23:07.557Z,94769.52
2018-06-11T05:28:10.783Z,94759.17
2018-06-11T05:33:14.842Z,94756.95
2018-06-11T05:38:18.132Z,94751.55
2018-06-11T05:43:22.186Z,94741.95
2018-06-11T05:48:25.459Z,94743.05
2018-06-11T05:53:28.799Z,94735.65
2018-06-11T05:58:32.036Z,94736.66
2018-06-11T06:03:35.324Z,94748.24
2018-06-11T06:08:38.634Z,94752.23
2018-06-11T06:13:41.912Z,94756.44
2018-06-11T06:18:45.219Z,94761.63
2018-06-11T06:23:48.490Z,94760.72
2018-06-11T06:28:51.779Z,94762.38
2018-06-11T06:33:55.104Z,94755.88
2018-06-11T06:38:58.403Z,94755.30
2018-06-11T06:44:01.692Z,94753.70
2018-06-11T06:49:05.766Z,94760.34
2018-06-11T06:54:09.551Z,94762.91
2018-06-11T06:59:13.715Z,94766.58
2018-06-11T07:04:17.007Z,94764.98
2018-06-11T07:09:20.507Z,94769.55
2018-06-11T07:14:24.555Z,94785.73
2018-06-11T07:19:27.848Z,94795.11
2018-06-11T07:24:31.894Z,94788.47
2018-06-11T07:29:35.183Z,94787.91
2018-06-11T07:34:39.242Z,94793.14
2018-06-11T07:39:42.526Z,94792.63
2018-06-11T07:44:46.567Z,94786.77
2018-06-11T07:49:49.886Z,94783.56
2018-06-11T07:54:53.182Z,94774.05
2018-06-11T07:59:57.243Z,94774.10
2018-06-11T08:05:00.519Z,94768.78
2018-06-11T08:10:04.576Z,94767.98
2018-06-11T08:15:07.864Z,94768.66
2018-06-11T08:20:11.908Z,94766.58
2018-06-11T08:25:15.203Z,94762.95
2018-06-11T08:30:18.703Z,94757.03
2018-06-11T08:35:21.982Z,94762.15
2018-06-11T08:40:25.263Z,94760.80
2018-06-11T08:45:28.568Z,94754.04
2018-06-11T08:50:32.626Z,94749.62
2018-06-11T08:55:35.926Z,94751.30
2018-06-11T09:00:39.212Z,94746.02
2018-06-11T09:05:42.506Z,94738.30
2018-06-11T09:10:45.811Z,94745.72
2018-06-11T09:15:49.244Z,94737.97
2018-06-11T09:20:52.820Z,94736.73
2018-06-11T09:25:56.132Z,94740.28
2018-06-11T09:30:59.682Z,94727.92
2018-06-11T09:36:02.918Z,94738.41
2018-06-11T09:41:06.210Z,94731.81
2018-06-11T09:46:09.518Z,94729.22
2018-06-11T09:51:13.763Z,94717.56
2018-06-11T09:56:17.816Z,94722.86
2018-06-11T10:01:21.087Z,94718.45
2018-06-11T10:06:24.379Z,94713.05
2018-06-11T10:11:27.655Z,94719.91
2018-06-11T10:16:31.248Z,94713.37
2018-06-11T10:21:35.783Z,94700.81
2018-06-11T10:26:39.863Z,94697.23
2018-06-11T10:31:43.174Z,94690.20
2018-06-11T10:36:46.452Z,94684.53
2018-06-11T10:41:49.739Z,94683.57
2018-06-11T10:46:54.088Z,94676.41
2018-06-11T10:51:58.321Z,94677.19
2018-06-11T10:57:02.379Z,94668.84
2018-06-11T11:02:05.668Z,94658.11
2018-06-11T11:07:09.712Z,94649.25
2018-06-11T11:12:12.987Z,94642.84
2018-06-11T11:17:17.048Z,94627.77
2018-06-11T11:22:20.334Z,94618.13
2018-06-11T11:27:24.387Z,94606.91
2018-06-11T11:32:27.672Z,94593.55
2018-06-11T11:37:31.718Z,94585.17
2018-06-11T11:42:35.781Z,94568.91
2018-06-11T11:47:39.231Z,94554.41
2018-06-11T11:52:42.546Z,94537.43
2018-06-11T11:57:45.846Z,94535.00
2018-06-11T12:02:49.155Z,94522.28
2018-06-11T12:07:52.444Z,94521.33
2018-06-11T12:12:55.736Z,94519.11
2018-06-11T12:17:59.019Z,94506.72
2018-06-11T12:23:03.088Z,94514.53
2018-06-11T12:28:06.396Z,94513.66
2018-06-11T12:33:09.686Z,94502.52
2018-06-11T12:38:13.210Z,94497.13
2018-06-11T12:43:16.515Z,94488.91
2018-06-11T12:48:19.934Z,94487.11
2018-06-11T12:53:23.448Z,94494.33
2018-06-11T12:58:26.759Z,94504.33
2018-06-11T13:03:30.052Z,94501.36
2018-06-11T13:08:34.397Z,94488.27
2018-06-11T13:13:38.743Z,94485.83
2018-06-11T13:18:42.164Z,94487.61
2018-06-11T13:23:45.638Z,94499.58
2018-06-11T13:28:49.087Z,94490.32
2018-06-11T13:33:52.505Z,94492.16
2018-06-11T13:38:57.254Z,94488.16
2018-06-11T13:44:00.549Z,94479.43
2018-06-11T13:49:04.592Z,94392.14
2018-06-11T13:54:07.880Z,94381.92
2018-06-11T13:59:11.162Z,94399.44
2018-06-11T14:04:14.459Z,94401.55
2018-06-11T14:09:17.737Z,94404.75
2018-06-11T14:14:21.047Z,94395.70
2018-06-11T14:19:25.095Z,94357.67
2018-06-11T14:24:28.395Z,94355.98
2018-06-11T14:29:32.450Z,94378.31
2018-06-11T14:34:35.731Z,94387.19
2018-06-11T14:39:39.023Z,94391.00
2018-06-11T14:44:43.074Z,94380.61
2018-06-11T14:49:46.360Z,94376.42
2018-06-11T14:54:50.419Z,94375.26
2018-06-11T14:59:53.704Z,94380.73
2018-06-11T15:04:57.771Z,94369.61
2018-06-11T15:10:01.066Z,94371.66
2018-06-11T15:15:04.343Z,94362.88
2018-06-11T15:20:07.641Z,94387.45
2018-06-11T15:25:10.916Z,94380.36
2018-06-11T15:30:14.205Z,94360.63
2018-06-11T15:35:18.253Z,94342.06
2018-06-11T15:40:21.567Z,94323.08
2018-06-11T15:45:24.858Z,94330.30
2018-06-11T15:50:28.903Z,94314.34
2018-06-11T15:55:32.211Z,94289.98
2018-06-11T16:00:41.893Z,94278.13
2018-06-11T16:05:45.177Z,94290.77
2018-06-11T16:10:52.303Z,94301.98
2018-06-11T16:15:55.607Z,94305.45
2018-06-11T16:20:59.112Z,94291.97
2018-06-11T16:26:02.413Z,94272.44
2018-06-11T16:31:06.480Z,94269.00
2018-06-11T16:36:09.775Z,94269.83
2018-06-11T16:41:13.076Z,94283.20
2018-06-11T16:46:16.371Z,94286.23
2018-06-11T16:51:20.447Z,94291.55
2018-06-11T16:56:23.755Z,94276.24
2018-06-11T17:01:27.234Z,94290.96
2018-06-11T17:06:31.288Z,94294.66
2018-06-11T17:11:34.775Z,94322.34
2018-06-11T17:16:38.075Z,94333.27
2018-06-11T17:21:42.151Z,94356.47
2018-06-11T17:26:45.443Z,94368.73
2018-06-11T17:31:48.767Z,94362.38
2018-06-11T17:36:52.078Z,94408.76
2018-06-11T17:41:55.399Z,94374.81
2018-06-11T17:46:58.715Z,94362.31
2018-06-11T17:52:02.317Z,94364.77
2018-06-11T17:57:05.615Z,94370.22
2018-06-11T18:02:09.684Z,94367.31
2018-06-11T18:07:12.989Z,94390.39
2018-06-11T18:12:17.088Z,94422.03
2018-06-11T18:17:20.605Z,94419.14
2018-06-11T18:22:24.027Z,94433.27
2018-06-11T18:27:27.409Z,94421.87
2018-06-11T18:32:31.266Z,94411.75
2018-06-11T18:37:34.762Z,94421.94
2018-06-11T18:42:39.270Z,94426.16
2018-06-11T18:47:43.564Z,94410.94
2018-06-11T18:52:47.173Z,94434.35
2018-06-11T18:57:52.332Z,94452.37
2018-06-11T19:02:56.354Z,94467.91
2018-06-11T19:07:59.940Z,94466.59
2018-06-11T19:13:03.631Z,94497.14
2018-06-11T19:18:07.418Z,94508.25
2018-06-11T19:23:11.118Z,94514.09
2018-06-11T19:28:15.771Z,94529.93
2018-06-11T19:33:26.333Z,94544.09
2018-06-11T19:38:30.791Z,94552.38
2018-06-11T19:43:35.029Z,94556.58
2018-06-11T19:48:38.519Z,94567.13
2018-06-11T19:53:41.956Z,94562.34
2018-06-11T19:58:45.307Z,94571.08
2018-06-11T20:03:49.103Z,94575.09
2018-06-11T20:20:10.989Z,94578.80
2018-06-11T20:25:14.712Z,94580.15
2018-06-11T20:30:22.983Z,94567.96
2018-06-11T20:35:26.608Z,94576.36
2018-06-11T20:40:34.081Z,94571.73
2018-06-11T20:45:37.813Z,94566.84
2018-06-11T20:50:45.148Z,94561.20
2018-06-11T20:55:49.599Z,94552.75
2018-06-11T21:00:53.310Z,94553.34
2018-06-11T21:05:56.922Z,94558.84
2018-06-11T21:11:00.555Z,94562.81
2018-06-11T21:16:03.950Z,94553.44
2018-06-11T21:21:07.276Z,94559.58
2018-06-11T21:26:10.603Z,94569.97
2018-06-11T21:31:13.935Z,94577.92
2018-06-11T21:36:17.262Z,94571.14
2018-06-11T21:41:20.594Z,94561.84
2018-06-11T21:46:24.687Z,94556.20
2018-06-11T21:51:28.014Z,94565.03
2018-06-11T21:56:31.348Z,94572.20
2018-06-11T22:01:34.671Z,94591.92
2018-06-11T22:06:37.992Z,94582.20
2018-06-11T22:11:41.331Z,94580.30
2018-06-11T22:16:44.666Z,94590.51
2018-06-11T22:21:48.005Z,94587.52
2018-06-11T22:26:52.095Z,94592.67
